sensor_id;sensor_type;location;lat;lon;timestamp;pressure;altitude;pressure_sealevel;temperature;humidity
13080;BME280;6606;49.154;9.280;2024-03-23T00:55:28;98829.03;;;10.11;100.00
13080;BME280;6606;49.154;9.280;2024-03-23T00:58:09;98831.75;;;9.97;100.00
13080;BME280;6606;49.154;9.280;2024-03-23T01:00:50;98831.56;;;10.00;100.00
13080;BME280;6606;49.154;9.280;2024-03-23T01:03:32;98831.13;;;9.93;100.00
13080;BME280;6606;49.154;9.280;2024-03-23T01:06:12;98822.53;;;9.90;100.00
13080;BME280;6606;49.154;9.280;2024-03-23T01:08:54;98817.56;;;9.98;100.00
13080;BME280;6606;49.154;9.280;2024-03-23T01:11:36;98807.19;;;10.08;100.00
13080;BME280;6606;49.154;9.280;2024-03-23T01:14:18;98809.72;;;10.09;100.00
13080;BME280;6606;49.154;9.280;2024-03-23T01:16:59;98799.66;;;10.14;100.00
13080;BME280;6606;49.154;9.280;2024-03-23T01:19:40;98810.72;;;10.21;100.00
13080;BME280;6606;49.154;9.280;2024-03-23T01:22:21;98800.38;;;10.04;100.00
13080;BME280;6606;49.154;9.280;2024-03-23T01:25:03;98803.78;;;10.06;100.00
13080;BME280;6606;49.154;9.280;2024-03-23T01:27:46;98796.25;;;10.12;100.00
13080;BME280;6606;49.154;9.280;2024-03-23T01:30:27;98792.31;;;10.05;100.00
13080;BME280;6606;49.154;9.280;2024-03-23T01:33:08;98780.00;;;10.17;100.00
13080;BME280;6606;49.154;9.280;2024-03-23T01:35:50;98777.47;;;10.54;100.00
13080;BME280;6606;49.154;9.280;2024-03-23T01:38:30;98771.94;;;10.95;100.00
13080;BME280;6606;49.154;9.280;2024-03-23T01:41:12;98771.69;;;10.98;100.00
13080;BME280;6606;49.154;9.280;2024-03-23T01:43:55;98765.66;;;10.96;100.00
13080;BME280;6606;49.154;9.280;2024-03-23T01:46:37;98766.03;;;11.03;100.00
13080;BME280;6606;49.154;9.280;2024-03-23T01:49:19;98764.97;;;11.06;100.00
13080;BME280;6606;49.154;9.280;2024-03-23T01:52:01;98763.69;;;11.11;100.00
13080;BME280;6606;49.154;9.280;2024-03-23T01:54:44;98760.03;;;11.25;100.00
13080;BME280;6606;49.154;9.280;2024-03-23T01:57:25;98739.16;;;11.32;100.00
13080;BME280;6606;49.154;9.280;2024-03-23T02:00:09;98738.03;;;11.23;100.00
13080;BME280;6606;49.154;9.280;2024-03-23T02:02:53;98721.56;;;11.18;100.00
13080;BME280;6606;49.154;9.280;2024-03-23T02:05:35;98732.13;;;11.07;100.00
13080;BME280;6606;49.154;9.280;2024-03-23T02:08:17;98722.63;;;10.91;100.00
13080;BME280;6606;49.154;9.280;2024-03-23T02:10:59;98734.00;;;10.93;100.00
13080;BME280;6606;49.154;9.280;2024-03-23T02:13:39;98731.94;;;10.97;100.00
13080;BME280;6606;49.154;9.280;2024-03-23T02:16:23;98734.72;;;10.95;100.00
13080;BME280;6606;49.154;9.280;2024-03-23T02:19:03;98730.06;;;10.86;100.00
13080;BME280;6606;49.154;9.280;2024-03-23T02:21:45;98715.63;;;10.90;100.00
13080;BME280;6606;49.154;9.280;2024-03-23T02:24:30;98719.44;;;10.86;100.00
13080;BME280;6606;49.154;9.280;2024-03-23T02:27:12;98708.16;;;10.95;100.00
13080;BME280;6606;49.154;9.280;2024-03-23T02:29:53;98716.56;;;10.89;100.00
13080;BME280;6606;49.154;9.280;2024-03-23T02:32:34;98694.75;;;10.97;100.00
13080;BME280;6606;49.154;9.280;2024-03-23T02:35:15;98684.78;;;11.00;100.00
13080;BME280;6606;49.154;9.280;2024-03-23T02:37:57;98703.50;;;10.86;100.00
13080;BME280;6606;49.154;9.280;2024-03-23T02:40:39;98704.91;;;10.79;100.00
13080;BME280;6606;49.154;9.280;2024-03-23T02:43:21;98677.50;;;11.02;100.00
13080;BME280;6606;49.154;9.280;2024-03-23T02:46:02;98688.78;;;11.06;100.00
13080;BME280;6606;49.154;9.280;2024-03-23T02:48:44;98691.72;;;11.14;100.00
13080;BME280;6606;49.154;9.280;2024-03-23T02:51:25;98690.00;;;11.13;100.00
13080;BME280;6606;49.154;9.280;2024-03-23T02:54:07;98692.47;;;11.16;100.00
13080;BME280;6606;49.154;9.280;2024-03-23T02:56:49;98690.72;;;11.39;100.00
13080;BME280;6606;49.154;9.280;2024-03-23T02:59:30;98673.69;;;11.42;100.00
13080;BME280;6606;49.154;9.280;2024-03-23T03:02:11;98685.06;;;11.44;100.00
13080;BME280;6606;49.154;9.280;2024-03-23T03:04:53;98679.16;;;11.40;100.00
13080;BME280;6606;49.154;9.280;2024-03-23T03:07:34;98695.53;;;11.34;100.00
13080;BME280;6606;49.154;9.280;2024-03-23T03:10:15;98676.69;;;11.37;100.00
13080;BME280;6606;49.154;9.280;2024-03-23T03:12:58;98657.47;;;11.34;100.00
13080;BME280;6606;49.154;9.280;2024-03-23T03:15:39;98672.69;;;11.32;100.00
13080;BME280;6606;49.154;9.280;2024-03-23T03:18:20;98671.25;;;11.28;100.00
13080;BME280;6606;49.154;9.280;2024-03-23T03:21:02;98662.47;;;11.38;100.00
13080;BME280;6606;49.154;9.280;2024-03-23T03:23:43;98655.44;;;11.37;100.00
13080;BME280;6606;49.154;9.280;2024-03-23T03:26:26;98658.28;;;11.23;100.00
13080;BME280;6606;49.154;9.280;2024-03-23T03:29:08;98650.66;;;11.18;100.00
13080;BME280;6606;49.154;9.280;2024-03-23T03:31:50;98651.28;;;11.22;100.00
13080;BME280;6606;49.154;9.280;2024-03-23T03:34:31;98649.81;;;11.18;100.00
13080;BME280;6606;49.154;9.280;2024-03-23T03:37:13;98657.03;;;11.16;100.00
13080;BME280;6606;49.154;9.280;2024-03-23T03:39:53;98658.38;;;11.21;100.00
13080;BME280;6606;49.154;9.280;2024-03-23T03:42:35;98654.16;;;11.19;100.00
13080;BME280;6606;49.154;9.280;2024-03-23T03:45:18;98647.66;;;11.23;100.00
13080;BME280;6606;49.154;9.280;2024-03-23T03:47:59;98656.59;;;11.22;100.00
13080;BME280;6606;49.154;9.280;2024-03-23T03:50:40;98645.50;;;11.28;100.00
13080;BME280;6606;49.154;9.280;2024-03-23T03:53:22;98638.28;;;11.30;100.00
13080;BME280;6606;49.154;9.280;2024-03-23T03:56:03;98626.44;;;11.34;100.00
13080;BME280;6606;49.154;9.280;2024-03-23T03:58:45;98638.03;;;11.33;100.00
13080;BME280;6606;49.154;9.280;2024-03-23T04:01:27;98634.06;;;11.39;100.00
13080;BME280;6606;49.154;9.280;2024-03-23T04:04:09;98627.16;;;11.36;100.00
13080;BME280;6606;49.154;9.280;2024-03-23T04:06:50;98613.97;;;11.35;100.00
13080;BME280;6606;49.154;9.280;2024-03-23T04:09:31;98616.78;;;11.33;100.00
13080;BME280;6606;49.154;9.280;2024-03-23T04:12:12;98614.59;;;11.27;100.00
13080;BME280;6606;49.154;9.280;2024-03-23T04:14:54;98615.75;;;11.23;100.00
13080;BME280;6606;49.154;9.280;2024-03-23T04:17:36;98619.41;;;11.22;100.00
13080;BME280;6606;49.154;9.280;2024-03-23T04:20:18;98622.56;;;11.27;100.00
13080;BME280;6606;49.154;9.280;2024-03-23T04:22:58;98627.00;;;11.27;100.00
13080;BME280;6606;49.154;9.280;2024-03-23T04:25:40;98612.19;;;11.35;100.00
13080;BME280;6606;49.154;9.280;2024-03-23T04:28:21;98618.44;;;11.34;100.00
13080;BME280;6606;49.154;9.280;2024-03-23T04:31:03;98617.00;;;11.30;100.00
13080;BME280;6606;49.154;9.280;2024-03-23T04:33:45;98620.16;;;11.35;100.00
13080;BME280;6606;49.154;9.280;2024-03-23T04:36:27;98630.22;;;11.19;100.00
13080;BME280;6606;49.154;9.280;2024-03-23T04:39:08;98638.44;;;11.16;100.00
13080;BME280;6606;49.154;9.280;2024-03-23T04:41:50;98630.94;;;11.10;100.00
13080;BME280;6606;49.154;9.280;2024-03-23T04:44:31;98631.41;;;11.04;100.00
13080;BME280;6606;49.154;9.280;2024-03-23T04:47:13;98620.59;;;10.94;100.00
13080;BME280;6606;49.154;9.280;2024-03-23T04:49:56;98624.56;;;10.88;100.00
13080;BME280;6606;49.154;9.280;2024-03-23T04:52:38;98620.66;;;10.81;100.00
13080;BME280;6606;49.154;9.280;2024-03-23T04:55:21;98619.56;;;10.84;100.00
13080;BME280;6606;49.154;9.280;2024-03-23T04:58:04;98623.03;;;10.73;100.00
13080;BME280;6606;49.154;9.280;2024-03-23T05:00:44;98633.34;;;10.65;100.00
13080;BME280;6606;49.154;9.280;2024-03-23T05:03:26;98636.53;;;10.70;100.00
13080;BME280;6606;49.154;9.280;2024-03-23T05:06:09;98639.94;;;10.72;100.00
13080;BME280;6606;49.154;9.280;2024-03-23T05:08:50;98630.25;;;10.71;100.00
13080;BME280;6606;49.154;9.280;2024-03-23T05:11:32;98628.56;;;10.70;100.00
13080;BME280;6606;49.154;9.280;2024-03-23T05:14:13;98624.09;;;10.70;100.00
13080;BME280;6606;49.154;9.280;2024-03-23T05:16:55;98620.31;;;10.62;100.00
13080;BME280;6606;49.154;9.280;2024-03-23T05:19:36;98634.94;;;10.54;100.00
13080;BME280;6606;49.154;9.280;2024-03-23T05:22:19;98642.50;;;10.61;100.00
13080;BME280;6606;49.154;9.280;2024-03-23T05:25:03;98652.59;;;10.55;100.00
13080;BME280;6606;49.154;9.280;2024-03-23T05:27:45;98664.28;;;10.53;100.00
13080;BME280;6606;49.154;9.280;2024-03-23T05:30:27;98664.69;;;10.47;100.00
13080;BME280;6606;49.154;9.280;2024-03-23T05:33:08;98665.53;;;10.47;100.00
13080;BME280;6606;49.154;9.280;2024-03-23T05:35:56;98657.56;;;10.47;100.00
13080;BME280;6606;49.154;9.280;2024-03-23T05:38:38;98656.22;;;10.42;100.00
13080;BME280;6606;49.154;9.280;2024-03-23T05:41:20;98635.00;;;10.29;100.00
13080;BME280;6606;49.154;9.280;2024-03-23T05:44:02;98647.56;;;10.27;100.00
13080;BME280;6606;49.154;9.280;2024-03-23T05:46:44;98642.78;;;10.32;100.00
13080;BME280;6606;49.154;9.280;2024-03-23T05:49:29;98663.13;;;10.31;100.00
13080;BME280;6606;49.154;9.280;2024-03-23T05:52:10;98652.13;;;10.25;100.00
13080;BME280;6606;49.154;9.280;2024-03-23T05:54:52;98657.94;;;10.30;100.00
13080;BME280;6606;49.154;9.280;2024-03-23T05:57:34;98691.59;;;10.29;100.00
13080;BME280;6606;49.154;9.280;2024-03-23T06:00:15;98698.28;;;10.22;100.00
13080;BME280;6606;49.154;9.280;2024-03-23T06:02:57;98701.69;;;10.11;100.00
13080;BME280;6606;49.154;9.280;2024-03-23T06:05:41;98705.72;;;10.04;100.00
13080;BME280;6606;49.154;9.280;2024-03-23T06:08:23;98707.00;;;9.99;100.00
13080;BME280;6606;49.154;9.280;2024-03-23T06:11:08;98707.94;;;9.85;100.00
13080;BME280;6606;49.154;9.280;2024-03-23T06:13:50;98713.97;;;9.74;100.00
13080;BME280;6606;49.154;9.280;2024-03-23T06:16:31;98723.53;;;9.77;100.00
13080;BME280;6606;49.154;9.280;2024-03-23T06:19:12;98742.63;;;9.82;100.00
13080;BME280;6606;49.154;9.280;2024-03-23T06:21:53;98728.91;;;9.75;100.00
13080;BME280;6606;49.154;9.280;2024-03-23T06:24:35;98716.50;;;9.76;100.00
13080;BME280;6606;49.154;9.280;2024-03-23T06:27:18;98732.53;;;9.74;100.00
13080;BME280;6606;49.154;9.280;2024-03-23T06:29:59;98737.09;;;9.72;100.00
13080;BME280;6606;49.154;9.280;2024-03-23T06:32:41;98734.94;;;9.64;100.00
13080;BME280;6606;49.154;9.280;2024-03-23T06:35:21;98757.66;;;9.68;100.00
13080;BME280;6606;49.154;9.280;2024-03-23T06:38:03;98767.84;;;9.75;100.00
13080;BME280;6606;49.154;9.280;2024-03-23T06:40:44;98773.97;;;9.62;100.00
13080;BME280;6606;49.154;9.280;2024-03-23T06:43:29;98776.81;;;9.59;100.00
13080;BME280;6606;49.154;9.280;2024-03-23T06:46:10;98788.47;;;9.57;100.00
13080;BME280;6606;49.154;9.280;2024-03-23T06:48:52;98779.97;;;9.52;100.00
13080;BME280;6606;49.154;9.280;2024-03-23T06:51:32;98803.59;;;9.42;100.00
13080;BME280;6606;49.154;9.280;2024-03-23T06:54:14;98823.50;;;9.20;100.00
13080;BME280;6606;49.154;9.280;2024-03-23T06:56:55;98869.44;;;8.62;100.00
13080;BME280;6606;49.154;9.280;2024-03-23T06:59:38;98856.91;;;8.21;100.00
13080;BME280;6606;49.154;9.280;2024-03-23T07:02:19;98861.94;;;7.95;100.00
13080;BME280;6606;49.154;9.280;2024-03-23T07:05:00;98878.16;;;7.89;100.00
13080;BME280;6606;49.154;9.280;2024-03-23T07:07:41;98898.47;;;7.89;100.00
13080;BME280;6606;49.154;9.280;2024-03-23T07:10:23;98902.19;;;8.01;100.00
13080;BME280;6606;49.154;9.280;2024-03-23T07:13:04;98891.41;;;8.04;100.00
13080;BME280;6606;49.154;9.280;2024-03-23T07:15:52;98908.69;;;7.95;100.00
13080;BME280;6606;49.154;9.280;2024-03-23T07:18:33;98913.91;;;7.65;100.00
13080;BME280;6606;49.154;9.280;2024-03-23T07:21:15;98911.94;;;7.53;100.00
13080;BME280;6606;49.154;9.280;2024-03-23T07:23:59;98930.19;;;7.41;100.00
13080;BME280;6606;49.154;9.280;2024-03-23T07:26:40;98933.00;;;7.38;100.00
13080;BME280;6606;49.154;9.280;2024-03-23T07:29:21;98939.88;;;7.25;100.00
13080;BME280;6606;49.154;9.280;2024-03-23T07:32:05;98956.00;;;7.36;100.00
13080;BME280;6606;49.154;9.280;2024-03-23T07:34:46;98954.38;;;7.49;100.00
13080;BME280;6606;49.154;9.280;2024-03-23T07:37:28;98967.78;;;7.62;100.00
13080;BME280;6606;49.154;9.280;2024-03-23T07:40:09;98977.03;;;7.54;100.00
13080;BME280;6606;49.154;9.280;2024-03-23T07:42:52;98967.50;;;7.51;100.00
13080;BME280;6606;49.154;9.280;2024-03-23T07:45:33;98968.47;;;7.66;100.00
13080;BME280;6606;49.154;9.280;2024-03-23T07:48:16;98984.06;;;7.55;100.00
13080;BME280;6606;49.154;9.280;2024-03-23T07:51:01;98981.41;;;7.55;100.00
13080;BME280;6606;49.154;9.280;2024-03-23T07:53:44;98990.97;;;7.57;100.00
13080;BME280;6606;49.154;9.280;2024-03-23T07:56:26;98998.06;;;7.72;100.00
13080;BME280;6606;49.154;9.280;2024-03-23T07:59:07;99000.78;;;7.71;100.00
13080;BME280;6606;49.154;9.280;2024-03-23T08:01:49;98997.72;;;7.94;100.00
13080;BME280;6606;49.154;9.280;2024-03-23T08:04:31;99004.50;;;8.30;100.00
13080;BME280;6606;49.154;9.280;2024-03-23T08:07:13;99017.09;;;8.57;100.00
13080;BME280;6606;49.154;9.280;2024-03-23T08:09:53;99031.47;;;8.53;100.00
13080;BME280;6606;49.154;9.280;2024-03-23T08:12:35;99042.69;;;8.72;100.00
13080;BME280;6606;49.154;9.280;2024-03-23T08:15:16;99045.56;;;8.83;100.00
13080;BME280;6606;49.154;9.280;2024-03-23T08:17:57;99068.31;;;8.72;100.00
13080;BME280;6606;49.154;9.280;2024-03-23T08:20:39;99065.75;;;8.70;100.00
13080;BME280;6606;49.154;9.280;2024-03-23T08:23:21;99065.09;;;8.51;100.00
13080;BME280;6606;49.154;9.280;2024-03-23T08:26:03;99076.53;;;8.51;100.00
13080;BME280;6606;49.154;9.280;2024-03-23T08:28:45;99078.50;;;8.48;100.00
13080;BME280;6606;49.154;9.280;2024-03-23T08:31:26;99073.81;;;8.53;100.00
13080;BME280;6606;49.154;9.280;2024-03-23T08:34:08;99099.22;;;8.71;100.00
13080;BME280;6606;49.154;9.280;2024-03-23T08:36:50;99109.47;;;8.46;100.00
13080;BME280;6606;49.154;9.280;2024-03-23T08:39:32;99108.63;;;8.45;100.00
13080;BME280;6606;49.154;9.280;2024-03-23T08:42:13;99114.44;;;8.52;100.00
13080;BME280;6606;49.154;9.280;2024-03-23T08:44:54;99126.56;;;8.40;100.00
13080;BME280;6606;49.154;9.280;2024-03-23T08:47:35;99132.28;;;8.32;100.00
13080;BME280;6606;49.154;9.280;2024-03-23T08:50:17;99129.97;;;8.26;100.00
13080;BME280;6606;49.154;9.280;2024-03-23T08:52:59;99142.63;;;8.53;100.00
13080;BME280;6606;49.154;9.280;2024-03-23T08:55:41;99150.97;;;8.61;100.00
13080;BME280;6606;49.154;9.280;2024-03-23T08:58:23;99158.97;;;9.07;100.00
13080;BME280;6606;49.154;9.280;2024-03-23T09:01:08;99156.25;;;8.93;100.00
13080;BME280;6606;49.154;9.280;2024-03-23T09:03:50;99160.88;;;9.35;100.00
13080;BME280;6606;49.154;9.280;2024-03-23T09:06:33;99151.69;;;9.85;100.00
13080;BME280;6606;49.154;9.280;2024-03-23T09:09:17;99146.47;;;10.12;100.00
13080;BME280;6606;49.154;9.280;2024-03-23T09:11:58;99170.56;;;10.09;100.00
13080;BME280;6606;49.154;9.280;2024-03-23T09:14:39;99173.19;;;9.81;100.00
13080;BME280;6606;49.154;9.280;2024-03-23T09:17:21;99162.38;;;9.69;100.00
13080;BME280;6606;49.154;9.280;2024-03-23T09:20:02;99178.28;;;9.55;100.00
13080;BME280;6606;49.154;9.280;2024-03-23T09:22:45;99171.63;;;9.48;100.00
13080;BME280;6606;49.154;9.280;2024-03-23T09:25:27;99157.97;;;9.84;100.00
13080;BME280;6606;49.154;9.280;2024-03-23T09:28:08;99172.44;;;9.93;100.00
13080;BME280;6606;49.154;9.280;2024-03-23T09:30:49;99175.91;;;9.65;100.00
13080;BME280;6606;49.154;9.280;2024-03-23T09:33:31;99181.06;;;9.52;100.00
13080;BME280;6606;49.154;9.280;2024-03-23T09:36:12;99175.44;;;9.58;100.00
13080;BME280;6606;49.154;9.280;2024-03-23T09:38:53;99174.53;;;9.74;100.00
13080;BME280;6606;49.154;9.280;2024-03-23T09:41:35;99178.09;;;9.58;97.72
13080;BME280;6606;49.154;9.280;2024-03-23T09:44:17;99179.13;;;9.70;93.92
13080;BME280;6606;49.154;9.280;2024-03-23T09:46:58;99180.72;;;10.03;93.78
13080;BME280;6606;49.154;9.280;2024-03-23T09:49:40;99180.59;;;10.33;94.77
13080;BME280;6606;49.154;9.280;2024-03-23T09:52:21;99172.22;;;10.68;88.65
13080;BME280;6606;49.154;9.280;2024-03-23T09:55:03;99168.03;;;10.78;85.64
13080;BME280;6606;49.154;9.280;2024-03-23T09:57:46;99182.28;;;10.77;80.77
13080;BME280;6606;49.154;9.280;2024-03-23T10:00:28;99166.34;;;10.63;87.14
13080;BME280;6606;49.154;9.280;2024-03-23T10:03:08;99167.84;;;10.52;85.60
13080;BME280;6606;49.154;9.280;2024-03-23T10:06:00;99172.84;;;10.58;80.83
13080;BME280;6606;49.154;9.280;2024-03-23T10:08:41;99169.03;;;10.34;80.98
13080;BME280;6606;49.154;9.280;2024-03-23T10:11:23;99181.03;;;10.83;80.38
13080;BME280;6606;49.154;9.280;2024-03-23T10:14:07;99180.69;;;11.01;76.74
13080;BME280;6606;49.154;9.280;2024-03-23T10:16:48;99187.31;;;10.39;76.50
13080;BME280;6606;49.154;9.280;2024-03-23T10:19:30;99199.72;;;10.52;75.61
13080;BME280;6606;49.154;9.280;2024-03-23T10:22:14;99199.09;;;10.20;73.94
13080;BME280;6606;49.154;9.280;2024-03-23T10:25:07;99186.66;;;10.35;75.54
13080;BME280;6606;49.154;9.280;2024-03-23T10:27:58;99195.19;;;10.40;76.77
13080;BME280;6606;49.154;9.280;2024-03-23T10:30:41;99195.78;;;10.45;81.04
13080;BME280;6606;49.154;9.280;2024-03-23T10:33:22;99197.47;;;10.32;88.49
13080;BME280;6606;49.154;9.280;2024-03-23T10:36:05;99194.63;;;10.06;91.13
13080;BME280;6606;49.154;9.280;2024-03-23T10:38:50;99207.66;;;9.81;93.24
13080;BME280;6606;49.154;9.280;2024-03-23T10:41:33;99196.47;;;9.61;91.04
13080;BME280;6606;49.154;9.280;2024-03-23T10:44:16;99211.06;;;9.68;92.80
13080;BME280;6606;49.154;9.280;2024-03-23T10:47:00;99211.41;;;9.62;92.57
13080;BME280;6606;49.154;9.280;2024-03-23T10:49:42;99211.19;;;9.96;92.23
13080;BME280;6606;49.154;9.280;2024-03-23T10:52:23;99206.16;;;9.91;90.15
13080;BME280;6606;49.154;9.280;2024-03-23T10:55:06;99206.84;;;9.95;92.95
13080;BME280;6606;49.154;9.280;2024-03-23T10:57:49;99213.88;;;9.65;92.45
13080;BME280;6606;49.154;9.280;2024-03-23T11:00:32;99217.34;;;9.52;100.00
13080;BME280;6606;49.154;9.280;2024-03-23T11:03:37;99219.63;;;9.27;100.00
13080;BME280;6606;49.154;9.280;2024-03-23T11:06:34;99218.44;;;9.17;100.00
13080;BME280;6606;49.154;9.280;2024-03-23T11:09:39;99213.63;;;9.40;100.00
13080;BME280;6606;49.154;9.280;2024-03-23T11:12:28;99203.13;;;9.68;100.00
13080;BME280;6606;49.154;9.280;2024-03-23T11:15:12;99202.69;;;10.33;100.00
13080;BME280;6606;49.154;9.280;2024-03-23T11:18:04;99187.19;;;10.83;95.10
13080;BME280;6606;49.154;9.280;2024-03-23T11:20:49;99179.34;;;11.21;91.81
13080;BME280;6606;49.154;9.280;2024-03-23T11:23:30;99182.13;;;11.20;81.14
13080;BME280;6606;49.154;9.280;2024-03-23T11:26:12;99180.75;;;10.73;85.02
13080;BME280;6606;49.154;9.280;2024-03-23T11:29:08;99186.84;;;10.75;80.36
13080;BME280;6606;49.154;9.280;2024-03-23T11:31:52;99194.06;;;11.00;77.78
13080;BME280;6606;49.154;9.280;2024-03-23T11:34:33;99183.78;;;10.81;73.75
13080;BME280;6606;49.154;9.280;2024-03-23T11:37:18;99182.56;;;10.58;75.75
13080;BME280;6606;49.154;9.280;2024-03-23T11:39:59;99179.63;;;10.48;79.23
13080;BME280;6606;49.154;9.280;2024-03-23T11:42:42;99168.63;;;11.23;81.26
13080;BME280;6606;49.154;9.280;2024-03-23T11:45:22;99162.75;;;11.58;76.67
13080;BME280;6606;49.154;9.280;2024-03-23T11:48:05;99162.44;;;11.10;68.46
13080;BME280;6606;49.154;9.280;2024-03-23T11:50:48;99158.03;;;10.69;75.47
13080;BME280;6606;49.154;9.280;2024-03-23T11:53:31;99161.44;;;11.38;70.70
13080;BME280;6606;49.154;9.280;2024-03-23T11:56:12;99162.00;;;11.68;63.21
13080;BME280;6606;49.154;9.280;2024-03-23T11:58:53;99160.66;;;11.88;60.60
13080;BME280;6606;49.154;9.280;2024-03-23T12:01:34;99166.78;;;12.53;57.73
13080;BME280;6606;49.154;9.280;2024-03-23T12:04:25;99156.56;;;12.47;55.62
13080;BME280;6606;49.154;9.280;2024-03-23T12:07:10;99149.03;;;11.64;58.94
13080;BME280;6606;49.154;9.280;2024-03-23T12:10:03;99159.56;;;11.65;51.95
13080;BME280;6606;49.154;9.280;2024-03-23T12:12:45;99162.50;;;11.35;50.88
13080;BME280;6606;49.154;9.280;2024-03-23T12:15:27;99164.63;;;11.30;51.22
13080;BME280;6606;49.154;9.280;2024-03-23T12:18:08;99154.69;;;11.72;55.10
13080;BME280;6606;49.154;9.280;2024-03-23T12:20:50;99147.88;;;12.19;52.95
13080;BME280;6606;49.154;9.280;2024-03-23T12:23:31;99152.53;;;11.52;54.31
13080;BME280;6606;49.154;9.280;2024-03-23T12:26:14;99158.47;;;11.42;55.20
13080;BME280;6606;49.154;9.280;2024-03-23T12:28:56;99131.03;;;11.55;56.00
13080;BME280;6606;49.154;9.280;2024-03-23T12:31:39;99139.03;;;12.19;55.78
13080;BME280;6606;49.154;9.280;2024-03-23T12:34:20;99138.00;;;12.58;55.16
13080;BME280;6606;49.154;9.280;2024-03-23T12:37:02;99136.81;;;12.00;54.06
13080;BME280;6606;49.154;9.280;2024-03-23T12:39:42;99136.91;;;11.98;54.89
13080;BME280;6606;49.154;9.280;2024-03-23T12:42:26;99133.84;;;12.17;52.66
13080;BME280;6606;49.154;9.280;2024-03-23T12:45:07;99125.25;;;12.38;51.23
13080;BME280;6606;49.154;9.280;2024-03-23T12:47:49;99121.91;;;11.84;50.66
13080;BME280;6606;49.154;9.280;2024-03-23T12:50:33;99116.69;;;11.70;52.87
13080;BME280;6606;49.154;9.280;2024-03-23T12:53:14;99111.66;;;12.29;51.10
13080;BME280;6606;49.154;9.280;2024-03-23T12:55:55;99129.22;;;11.55;50.71
13080;BME280;6606;49.154;9.280;2024-03-23T12:58:39;99126.38;;;11.45;50.10
13080;BME280;6606;49.154;9.280;2024-03-23T13:01:20;99111.34;;;11.44;51.77
13080;BME280;6606;49.154;9.280;2024-03-23T13:04:01;99125.50;;;11.45;50.97
13080;BME280;6606;49.154;9.280;2024-03-23T13:06:42;99123.44;;;11.23;50.41
13080;BME280;6606;49.154;9.280;2024-03-23T13:09:24;99124.06;;;11.27;53.41
13080;BME280;6606;49.154;9.280;2024-03-23T13:12:06;99127.28;;;11.32;57.05
13080;BME280;6606;49.154;9.280;2024-03-23T13:14:49;99124.44;;;11.47;56.00
13080;BME280;6606;49.154;9.280;2024-03-23T13:17:30;99120.94;;;11.60;55.90
13080;BME280;6606;49.154;9.280;2024-03-23T13:20:12;99116.34;;;11.36;58.62
13080;BME280;6606;49.154;9.280;2024-03-23T13:22:55;99125.44;;;11.07;57.01
13080;BME280;6606;49.154;9.280;2024-03-23T13:25:36;99133.88;;;10.30;55.65
13080;BME280;6606;49.154;9.280;2024-03-23T13:28:17;99220.78;;;9.08;84.32
13080;BME280;6606;49.154;9.280;2024-03-23T13:31:00;99262.44;;;7.36;100.00
13080;BME280;6606;49.154;9.280;2024-03-23T13:33:44;99279.28;;;5.57;100.00
13080;BME280;6606;49.154;9.280;2024-03-23T13:36:25;99251.09;;;5.17;100.00
13080;BME280;6606;49.154;9.280;2024-03-23T13:39:06;99229.59;;;5.27;100.00
13080;BME280;6606;49.154;9.280;2024-03-23T13:41:51;99182.78;;;5.55;100.00
13080;BME280;6606;49.154;9.280;2024-03-23T13:44:32;99172.19;;;5.77;100.00
13080;BME280;6606;49.154;9.280;2024-03-23T13:47:15;99189.44;;;5.84;100.00
13080;BME280;6606;49.154;9.280;2024-03-23T13:49:56;99203.53;;;5.83;100.00
13080;BME280;6606;49.154;9.280;2024-03-23T13:52:37;99225.28;;;5.67;100.00
13080;BME280;6606;49.154;9.280;2024-03-23T13:55:18;99248.50;;;5.58;100.00
13080;BME280;6606;49.154;9.280;2024-03-23T13:58:00;99248.25;;;5.43;100.00
13080;BME280;6606;49.154;9.280;2024-03-23T14:00:41;99292.97;;;5.45;100.00
13080;BME280;6606;49.154;9.280;2024-03-23T14:03:25;99248.84;;;5.50;100.00
13080;BME280;6606;49.154;9.280;2024-03-23T14:06:06;99204.44;;;6.02;100.00
13080;BME280;6606;49.154;9.280;2024-03-23T14:08:49;99193.03;;;6.96;100.00
13080;BME280;6606;49.154;9.280;2024-03-23T14:11:31;99198.25;;;7.34;100.00
13080;BME280;6606;49.154;9.280;2024-03-23T14:14:12;99190.34;;;8.02;100.00
13080;BME280;6606;49.154;9.280;2024-03-23T14:16:53;99180.72;;;8.17;100.00
13080;BME280;6606;49.154;9.280;2024-03-23T14:19:36;99179.31;;;8.59;100.00
13080;BME280;6606;49.154;9.280;2024-03-23T14:22:17;99192.81;;;8.38;100.00
13080;BME280;6606;49.154;9.280;2024-03-23T14:24:59;99186.59;;;8.55;100.00
13080;BME280;6606;49.154;9.280;2024-03-23T14:27:43;99182.56;;;8.64;100.00
13080;BME280;6606;49.154;9.280;2024-03-23T14:30:24;99180.69;;;8.34;100.00
13080;BME280;6606;49.154;9.280;2024-03-23T14:33:06;99164.13;;;8.47;100.00
13080;BME280;6606;49.154;9.280;2024-03-23T14:35:53;99174.50;;;9.29;100.00
13080;BME280;6606;49.154;9.280;2024-03-23T14:38:35;99161.22;;;9.59;100.00
13080;BME280;6606;49.154;9.280;2024-03-23T14:41:16;99145.63;;;9.83;100.00
13080;BME280;6606;49.154;9.280;2024-03-23T14:43:58;99145.75;;;9.82;100.00
13080;BME280;6606;49.154;9.280;2024-03-23T14:46:39;99136.44;;;9.30;100.00
13080;BME280;6606;49.154;9.280;2024-03-23T14:49:21;99138.38;;;8.96;100.00
13080;BME280;6606;49.154;9.280;2024-03-23T14:52:04;99136.69;;;9.11;100.00
13080;BME280;6606;49.154;9.280;2024-03-23T14:54:46;99145.28;;;9.45;100.00
13080;BME280;6606;49.154;9.280;2024-03-23T14:57:27;99153.97;;;9.33;100.00
13080;BME280;6606;49.154;9.280;2024-03-23T15:00:11;99159.69;;;8.63;100.00
13080;BME280;6606;49.154;9.280;2024-03-23T15:02:53;99160.44;;;8.18;100.00
13080;BME280;6606;49.154;9.280;2024-03-23T15:05:33;99166.88;;;8.12;100.00
13080;BME280;6606;49.154;9.280;2024-03-23T15:08:16;99160.56;;;8.14;100.00
13080;BME280;6606;49.154;9.280;2024-03-23T15:10:59;99170.72;;;8.06;100.00
13080;BME280;6606;49.154;9.280;2024-03-23T15:13:41;99194.72;;;7.86;100.00
13080;BME280;6606;49.154;9.280;2024-03-23T15:16:22;99163.13;;;8.65;100.00
13080;BME280;6606;49.154;9.280;2024-03-23T15:19:03;99167.88;;;9.36;100.00
13080;BME280;6606;49.154;9.280;2024-03-23T15:21:46;99160.63;;;9.40;91.96